Time;durP1;ratioP1;P1;durP2;ratioP2;P2;SDS_P1;SDS_P2;PMS_P1;PMS_P2;Temp;Humidity;BMP_temperature;BMP_pressure;BME280_temperature;BME280_humidity;BME280_pressure;Samples;Min_cycle;Max_cycle;Signal;HPM_P1;HPM_P2
2023/12/04 00:00:37;;;;;;;13.52;10.00;;;18.50;73.00;;;;;;5010735;28;20128;-69
2023/12/04 00:03:02;;;;;;;12.15;9.63;;;18.50;73.10;;;;;;5009554;28;20021;-68
2023/12/04 00:05:28;;;;;;;13.48;9.48;;;18.50;73.10;;;;;;5008701;28;20037;-66
2023/12/04 00:07:54;;;;;;;14.10;10.05;;;18.50;73.10;;;;;;5015877;28;20033;-65
2023/12/04 00:10:20;;;;;;;13.77;9.85;;;18.60;73.10;;;;;;5027463;22;20438;-65
2023/12/04 00:12:45;;;;;;;13.45;8.48;;;18.60;73.00;;;;;;4970970;28;20117;-64
2023/12/04 00:15:11;;;;;;;14.00;9.07;;;18.60;73.00;;;;;;4962217;28;20035;-64
2023/12/04 00:17:39;;;;;;;15.10;8.75;;;18.60;72.90;;;;;;4970893;28;20490;-64
2023/12/04 00:20:06;;;;;;;11.98;8.43;;;18.60;73.00;;;;;;4971195;28;20109;-64
2023/12/04 00:22:32;;;;;;;13.45;9.15;;;18.60;73.00;;;;;;4959325;28;20115;-64
2023/12/04 00:24:58;;;;;;;12.52;8.48;;;18.60;73.10;;;;;;4958961;28;20114;-64
2023/12/04 00:27:26;;;;;;;12.35;9.27;;;18.60;73.10;;;;;;4962914;28;20022;-64
2023/12/04 00:29:52;;;;;;;13.38;8.00;;;18.60;73.10;;;;;;4962324;28;20023;-65
2023/12/04 00:32:18;;;;;;;10.75;7.25;;;18.60;73.20;;;;;;4982839;28;20035;-65
2023/12/04 00:34:44;;;;;;;9.90;7.78;;;18.60;73.30;;;;;;4958850;28;20031;-65
2023/12/04 00:37:09;;;;;;;11.13;7.68;;;18.60;73.20;;;;;;4960227;28;20030;-65
2023/12/04 00:39:35;;;;;;;9.65;7.50;;;18.60;73.20;;;;;;4962700;28;20019;-66
2023/12/04 00:42:00;;;;;;;10.25;7.78;;;18.60;73.20;;;;;;4961600;28;20402;-64
2023/12/04 00:44:26;;;;;;;9.88;7.32;;;18.60;73.30;;;;;;4958874;28;20128;-63
2023/12/04 00:46:52;;;;;;;9.80;6.82;;;18.60;73.40;;;;;;4958564;28;20020;-64
2023/12/04 00:49:17;;;;;;;9.90;7.03;;;18.60;73.40;;;;;;4961716;28;20027;-63
2023/12/04 00:51:43;;;;;;;9.30;6.97;;;18.60;73.50;;;;;;4961919;28;20041;-63
2023/12/04 00:54:08;;;;;;;10.32;7.18;;;18.60;73.40;;;;;;4960128;28;20442;-63
2023/12/04 00:56:34;;;;;;;9.27;6.70;;;18.60;73.40;;;;;;4958504;28;20034;-64
2023/12/04 00:59:00;;;;;;;9.13;6.95;;;18.60;73.50;;;;;;4958164;28;20073;-64
2023/12/04 01:01:25;;;;;;;9.98;6.45;;;18.60;73.50;;;;;;4962105;28;20023;-64
2023/12/04 01:03:51;;;;;;;9.48;6.82;;;18.60;73.60;;;;;;4961811;28;20034;-66
2023/12/04 01:06:23;;;;;;;10.75;6.53;;;18.60;73.60;;;;;;4958430;28;20024;-65
2023/12/04 01:08:50;;;;;;;8.45;5.93;;;18.60;73.90;;;;;;4957704;28;20019;-65
2023/12/04 01:11:16;;;;;;;8.88;6.03;;;18.60;73.90;;;;;;4961822;28;20062;-66
2023/12/04 01:13:42;;;;;;;8.45;6.47;;;18.60;73.80;;;;;;4961597;28;20022;-65
2023/12/04 01:16:09;;;;;;;8.25;5.65;;;18.60;73.80;;;;;;4959493;28;20121;-65
2023/12/04 01:18:34;;;;;;;10.80;6.13;;;18.60;73.90;;;;;;4958691;28;20414;-65
2023/12/04 01:21:00;;;;;;;9.18;5.75;;;18.70;73.90;;;;;;4961435;28;20040;-61
2023/12/04 01:23:25;;;;;;;9.93;6.75;;;18.70;73.70;;;;;;4961985;28;20031;-61
2023/12/04 01:25:51;;;;;;;9.38;6.45;;;18.70;73.70;;;;;;4961053;28;20019;-62
2023/12/04 01:28:17;;;;;;;8.57;5.90;;;18.70;73.40;;;;;;4958616;28;20501;-62
2023/12/04 01:30:42;;;;;;;10.55;7.15;;;18.70;73.30;;;;;;4958561;28;20072;-62
2023/12/04 01:33:08;;;;;;;8.07;5.72;;;18.70;73.20;;;;;;4959637;28;20027;-60
2023/12/04 01:35:34;;;;;;;8.93;5.28;;;18.70;73.10;;;;;;4960805;28;20041;-61
2023/12/04 01:37:59;;;;;;;7.50;5.47;;;18.70;73.10;;;;;;4960645;28;20069;-60
2023/12/04 01:40:26;;;;;;;9.82;5.05;;;18.70;73.10;;;;;;4958108;28;20023;-60
2023/12/04 01:42:51;;;;;;;9.70;5.85;;;18.70;73.00;;;;;;4958060;28;20106;-63
2023/12/04 01:45:17;;;;;;;7.72;5.80;;;18.70;73.10;;;;;;4960085;28;20093;-61
2023/12/04 01:47:43;;;;;;;7.40;5.20;;;18.70;73.10;;;;;;4961158;28;20023;-61
2023/12/04 01:50:09;;;;;;;5.57;4.60;;;18.70;73.00;;;;;;4959196;28;20029;-62
2023/12/04 01:52:36;;;;;;;6.57;4.80;;;18.70;73.00;;;;;;4958268;28;20024;-63
2023/12/04 01:55:02;;;;;;;7.18;5.07;;;18.70;73.00;;;;;;4957719;28;20023;-61
2023/12/04 01:57:28;;;;;;;7.90;4.85;;;18.70;73.00;;;;;;4961140;28;20053;-62
2023/12/04 01:59:53;;;;;;;7.03;4.25;;;18.70;73.20;;;;;;4960994;28;20491;-61
2023/12/04 02:02:20;;;;;;;6.72;4.45;;;18.70;73.30;;;;;;4949536;28;20024;-59
2023/12/04 02:04:46;;;;;;;8.18;5.70;;;18.70;73.40;;;;;;4956211;28;20394;-62
2023/12/04 02:07:11;;;;;;;6.50;5.28;;;18.70;73.50;;;;;;4961086;28;20026;-61
2023/12/04 02:09:37;;;;;;;9.25;5.03;;;18.70;73.50;;;;;;5000749;28;20550;-60
2023/12/04 02:12:04;;;;;;;9.07;5.50;;;18.70;73.70;;;;;;4959517;28;20042;-61
2023/12/04 02:14:29;;;;;;;7.88;5.55;;;18.70;73.80;;;;;;4957321;28;20027;-62
2023/12/04 02:16:56;;;;;;;11.85;5.15;;;18.70;73.90;;;;;;4957241;28;20027;-61
2023/12/04 02:19:22;;;;;;;8.25;4.80;;;18.80;73.90;;;;;;4953948;28;20031;-61
2023/12/04 02:21:47;;;;;;;5.40;4.13;;;18.80;73.50;;;;;;4953898;28;20069;-60
2023/12/04 02:24:13;;;;;;;9.10;4.40;;;18.80;73.40;;;;;;4965069;28;20441;-61
2023/12/04 02:26:47;;;;;;;5.07;3.97;;;18.80;73.60;;;;;;4957267;28;20016;-61
2023/12/04 02:29:20;;;;;;;8.70;4.45;;;18.80;73.70;;;;;;4959391;28;20023;-60
2023/12/04 02:31:47;;;;;;;8.32;4.43;;;18.80;73.70;;;;;;4960432;28;20038;-61
2023/12/04 02:34:15;;;;;;;7.00;4.28;;;18.80;73.70;;;;;;4957238;28;20019;-61
2023/12/04 02:36:42;;;;;;;11.50;4.28;;;18.80;73.70;;;;;;4958166;28;20434;-61
2023/12/04 02:39:08;;;;;;;8.57;3.92;;;18.80;73.80;;;;;;4959789;28;20023;-63
2023/12/04 02:41:33;;;;;;;6.63;3.80;;;18.80;73.80;;;;;;4960755;28;20390;-61
2023/12/04 02:43:59;;;;;;;6.35;4.45;;;18.70;73.90;;;;;;4959689;28;20038;-62
2023/12/04 02:46:24;;;;;;;6.57;4.25;;;18.80;73.90;;;;;;4956903;28;20031;-66
2023/12/04 02:48:50;;;;;;;4.93;3.75;;;18.80;74.10;;;;;;4957437;28;20023;-66
2023/12/04 02:51:16;;;;;;;5.97;3.75;;;18.70;74.10;;;;;;4959433;28;20027;-65
2023/12/04 02:53:41;;;;;;;6.13;3.85;;;18.80;74.00;;;;;;4960372;28;20085;-64
2023/12/04 02:56:07;;;;;;;4.10;3.28;;;18.80;73.90;;;;;;4958258;28;20442;-65
2023/12/04 02:58:34;;;;;;;4.00;3.10;;;18.80;73.90;;;;;;4957075;28;20073;-64
2023/12/04 03:01:00;;;;;;;7.38;3.70;;;18.80;73.90;;;;;;4957222;28;20114;-62
2023/12/04 03:03:25;;;;;;;6.63;3.50;;;18.70;73.90;;;;;;4960316;28;20098;-63
2023/12/04 03:05:51;;;;;;;5.35;3.50;;;18.70;73.80;;;;;;4959621;28;20023;-64
2023/12/04 03:08:16;;;;;;;4.43;3.20;;;18.70;73.80;;;;;;4957286;28;20605;-64
2023/12/04 03:10:42;;;;;;;4.38;3.25;;;18.70;73.90;;;;;;4956911;28;20498;-64
2023/12/04 03:13:08;;;;;;;5.32;3.33;;;18.70;73.80;;;;;;4958018;28;20027;-64
2023/12/04 03:15:33;;;;;;;4.60;3.30;;;18.70;73.80;;;;;;4959447;28;20035;-65
2023/12/04 03:18:00;;;;;;;5.00;3.60;;;18.70;73.80;;;;;;4957853;28;20118;-62
2023/12/04 03:20:26;;;;;;;3.90;3.05;;;18.70;73.80;;;;;;4964178;28;20382;-64
2023/12/04 03:22:52;;;;;;;6.00;3.33;;;18.70;73.80;;;;;;4958635;28;20019;-63
2023/12/04 03:25:17;;;;;;;4.75;3.15;;;18.70;73.70;;;;;;4961970;28;20432;-64
2023/12/04 03:27:43;;;;;;;5.22;3.25;;;18.70;73.80;;;;;;4961944;28;20034;-63
2023/12/04 03:30:09;;;;;;;3.90;3.10;;;18.70;73.80;;;;;;4961255;28;20439;-65
2023/12/04 03:32:34;;;;;;;4.93;3.13;;;18.70;73.80;;;;;;4959884;28;20396;-65
2023/12/04 03:35:01;;;;;;;4.63;2.97;;;18.70;74.10;;;;;;4958179;28;20031;-61
2023/12/04 03:37:26;;;;;;;3.17;2.55;;;18.70;74.10;;;;;;4963177;28;20786;-62
2023/12/04 03:39:52;;;;;;;4.47;2.95;;;18.70;73.90;;;;;;4963082;28;20033;-61
2023/12/04 03:42:17;;;;;;;3.25;2.67;;;18.70;74.00;;;;;;4960048;28;20034;-62
2023/12/04 03:44:43;;;;;;;5.90;3.00;;;18.70;74.00;;;;;;4959676;28;20096;-62
2023/12/04 03:47:09;;;;;;;3.60;2.55;;;18.70;74.00;;;;;;4960801;28;20061;-62
2023/12/04 03:49:34;;;;;;;7.05;2.92;;;18.70;74.00;;;;;;4963043;28;20030;-61
2023/12/04 03:52:00;;;;;;;5.43;2.58;;;18.70;74.00;;;;;;4962092;28;20141;-61
2023/12/04 03:54:25;;;;;;;3.97;2.55;;;18.70;74.00;;;;;;4959648;28;20024;-62
2023/12/04 03:56:51;;;;;;;3.40;2.70;;;18.70;74.10;;;;;;4959181;28;20466;-63
2023/12/04 03:59:16;;;;;;;3.67;2.50;;;18.70;74.20;;;;;;4961817;28;20027;-63
2023/12/04 04:01:42;;;;;;;3.38;2.78;;;18.70;74.00;;;;;;4962819;28;20442;-62
2023/12/04 04:04:07;;;;;;;4.53;2.40;;;18.70;73.90;;;;;;4960668;28;20034;-64
2023/12/04 04:06:33;;;;;;;2.97;2.42;;;18.80;73.80;;;;;;4959179;28;20073;-64
2023/12/04 04:08:59;;;;;;;2.58;2.05;;;18.80;73.90;;;;;;4959458;28;20027;-63
2023/12/04 04:11:24;;;;;;;2.53;2.20;;;18.70;73.80;;;;;;4962555;28;20088;-63
2023/12/04 04:13:50;;;;;;;3.20;2.45;;;18.80;73.80;;;;;;4962325;28;20023;-63
2023/12/04 04:16:16;;;;;;;2.90;2.10;;;18.80;73.90;;;;;;4959190;28;20058;-65
2023/12/04 04:18:42;;;;;;;4.00;2.20;;;18.70;73.90;;;;;;4964630;28;20030;-63
2023/12/04 04:21:08;;;;;;;4.32;2.00;;;18.70;73.90;;;;;;4962681;28;20035;-63
2023/12/04 04:23:34;;;;;;;3.10;2.25;;;18.80;74.00;;;;;;4962343;28;20019;-63
2023/12/04 04:25:59;;;;;;;2.33;1.88;;;18.70;73.90;;;;;;4960278;28;20031;-61
2023/12/04 04:28:25;;;;;;;2.28;2.08;;;18.70;73.90;;;;;;4950881;28;20019;-64
2023/12/04 04:30:51;;;;;;;4.32;2.10;;;18.70;73.90;;;;;;4958225;28;20019;-63
2023/12/04 04:33:17;;;;;;;3.60;2.28;;;18.70;73.90;;;;;;4962659;28;20034;-63
2023/12/04 04:35:43;;;;;;;2.80;2.17;;;18.70;73.90;;;;;;4987882;28;20023;-64
2023/12/04 04:38:09;;;;;;;2.58;2.00;;;18.70;73.90;;;;;;4960258;28;20149;-63
2023/12/04 04:40:34;;;;;;;3.40;1.88;;;18.70;74.00;;;;;;4958727;28;20023;-63
2023/12/04 04:43:00;;;;;;;3.03;2.10;;;18.70;74.00;;;;;;4958974;28;20024;-60
2023/12/04 04:45:25;;;;;;;2.05;1.70;;;18.60;74.00;;;;;;4961237;28;20034;-63
2023/12/04 04:47:51;;;;;;;2.80;2.30;;;18.70;74.10;;;;;;4954694;28;20106;-64
2023/12/04 04:50:17;;;;;;;2.88;2.05;;;18.60;74.00;;;;;;4966367;28;20501;-64
2023/12/04 04:52:43;;;;;;;3.47;1.65;;;18.60;74.00;;;;;;4958752;28;20033;-63
2023/12/04 04:55:08;;;;;;;2.00;1.80;;;18.60;74.00;;;;;;4959143;28;20876;-64
2023/12/04 04:57:34;;;;;;;2.75;1.92;;;18.60;74.00;;;;;;4957208;28;20033;-65
2023/12/04 04:59:59;;;;;;;2.30;1.83;;;18.60;74.00;;;;;;4965922;28;20054;-62
2023/12/04 05:02:25;;;;;;;2.45;1.58;;;18.70;74.20;;;;;;4958540;28;20103;-63
2023/12/04 05:04:50;;;;;;;3.03;2.22;;;18.60;74.40;;;;;;4957889;28;20054;-63
2023/12/04 05:07:16;;;;;;;2.20;1.40;;;18.60;74.10;;;;;;4960754;28;20042;-62
2023/12/04 05:09:42;;;;;;;3.55;2.15;;;18.60;74.20;;;;;;4961640;28;20443;-64
2023/12/04 05:12:07;;;;;;;4.30;1.90;;;18.60;74.30;;;;;;4959703;28;20042;-65
2023/12/04 05:14:33;;;;;;;3.90;1.95;;;18.70;74.20;;;;;;4958099;28;20049;-65
2023/12/04 05:16:59;;;;;;;3.60;2.10;;;18.70;74.70;;;;;;4957710;28;20027;-64
2023/12/04 05:19:24;;;;;;;4.53;2.40;;;18.70;74.50;;;;;;4969253;28;20076;-63
2023/12/04 05:21:50;;;;;;;2.45;1.70;;;18.70;74.40;;;;;;4961485;28;20049;-64
2023/12/04 05:24:16;;;;;;;5.82;1.63;;;18.70;74.30;;;;;;4958220;28;20042;-64
2023/12/04 05:26:41;;;;;;;2.33;1.40;;;18.70;74.30;;;;;;4957535;28;20030;-64
2023/12/04 05:29:07;;;;;;;2.05;1.60;;;18.70;74.40;;;;;;4959355;28;20141;-61
2023/12/04 05:31:32;;;;;;;5.65;1.50;;;18.60;74.40;;;;;;4961244;28;20548;-63
2023/12/04 05:33:58;;;;;;;2.28;1.90;;;18.70;74.40;;;;;;4960478;28;20126;-61
2023/12/04 05:36:23;;;;;;;2.05;1.73;;;18.70;74.30;;;;;;4957386;28;20452;-62
2023/12/04 05:38:49;;;;;;;4.95;1.75;;;18.70;74.60;;;;;;4957918;28;20055;-62
2023/12/04 05:41:14;;;;;;;5.97;2.20;;;18.70;74.50;;;;;;4959900;28;20072;-62
2023/12/04 05:43:40;;;;;;;2.35;1.40;;;18.70;74.40;;;;;;4961358;28;20019;-61
2023/12/04 05:46:06;;;;;;;1.95;1.48;;;18.70;74.50;;;;;;4958622;28;20035;-62
2023/12/04 05:48:31;;;;;;;2.67;1.52;;;18.70;74.40;;;;;;4955496;28;20391;-63
2023/12/04 05:50:57;;;;;;;3.75;1.65;;;18.70;74.30;;;;;;4947857;29;20066;-63
2023/12/04 05:53:22;;;;;;;4.63;1.40;;;18.70;74.40;;;;;;4952774;28;20479;-66
2023/12/04 05:55:48;;;;;;;4.10;1.80;;;18.70;74.60;;;;;;4966106;28;20034;-64
2023/12/04 05:58:14;;;;;;;2.47;1.20;;;18.70;74.50;;;;;;4958600;28;20457;-63
2023/12/04 06:00:40;;;;;;;7.18;1.60;;;18.80;74.50;;;;;;4957759;28;20082;-65
2023/12/04 06:03:06;;;;;;;2.15;1.55;;;18.70;74.40;;;;;;4958584;28;20084;-63
2023/12/04 06:05:31;;;;;;;3.28;1.40;;;18.70;74.40;;;;;;4960274;28;20114;-64
2023/12/04 06:07:57;;;;;;;3.58;1.40;;;18.70;74.30;;;;;;4960627;28;20023;-64
2023/12/04 06:10:23;;;;;;;2.08;1.60;;;18.70;74.20;;;;;;4942171;29;20038;-64
2023/12/04 06:12:49;;;;;;;2.20;1.55;;;18.70;74.10;;;;;;4957546;28;20019;-65
2023/12/04 06:15:14;;;;;;;2.72;1.58;;;18.70;74.00;;;;;;4958612;28;20027;-62
2023/12/04 06:17:40;;;;;;;2.90;1.70;;;18.60;74.00;;;;;;4960622;28;20053;-65
2023/12/04 06:20:06;;;;;;;2.17;1.55;;;18.60;73.90;;;;;;4959062;28;20019;-64
2023/12/04 06:22:32;;;;;;;1.35;1.15;;;18.60;73.90;;;;;;4957418;28;20027;-64
2023/12/04 06:24:58;;;;;;;2.25;1.30;;;18.60;73.90;;;;;;4953355;28;20554;-66
2023/12/04 06:27:24;;;;;;;2.50;1.50;;;18.60;73.90;;;;;;4953660;28;20451;-64
2023/12/04 06:29:51;;;;;;;1.98;1.40;;;18.60;73.80;;;;;;4960424;28;20772;-64
2023/12/04 06:32:17;;;;;;;2.30;1.35;;;18.50;73.90;;;;;;4957297;28;20035;-62
2023/12/04 06:34:42;;;;;;;1.75;1.55;;;18.50;73.90;;;;;;4956632;28;20054;-64
2023/12/04 06:37:13;;;;;;;2.40;1.42;;;18.60;73.90;;;;;;4957336;28;20144;-62
2023/12/04 06:39:40;;;;;;;2.57;1.43;;;18.60;73.90;;;;;;4960351;28;20049;-61
2023/12/04 06:42:07;;;;;;;3.40;1.60;;;18.50;73.80;;;;;;4958617;28;20029;-63
2023/12/04 06:44:33;;;;;;;2.65;1.63;;;18.50;73.90;;;;;;4955184;28;20395;-62
2023/12/04 06:47:03;;;;;;;1.75;1.45;;;18.60;74.10;;;;;;4956690;28;20023;-64
2023/12/04 06:49:31;;;;;;;1.48;1.38;;;18.60;74.10;;;;;;4961295;28;20018;-64
2023/12/04 06:51:56;;;;;;;13.88;1.60;;;18.60;74.00;;;;;;4991930;28;20035;-60
2023/12/04 06:54:22;;;;;;;1.83;1.30;;;18.60;74.10;;;;;;4947158;29;20084;-61
2023/12/04 06:56:48;;;;;;;6.00;2.15;;;18.60;74.00;;;;;;4956540;28;20102;-60
2023/12/04 06:59:13;;;;;;;2.10;1.90;;;18.50;73.90;;;;;;4968432;28;20023;-62
2023/12/04 07:01:39;;;;;;;3.25;1.50;;;18.60;73.90;;;;;;4962026;28;20023;-61
2023/12/04 07:04:09;;;;;;;1.90;1.60;;;18.60;73.90;;;;;;4961112;28;20031;-62
2023/12/04 07:06:35;;;;;;;2.57;1.20;;;18.60;73.90;;;;;;4958802;28;20065;-58
2023/12/04 07:09:01;;;;;;;4.57;1.63;;;18.60;73.80;;;;;;4960437;28;20721;-60
2023/12/04 07:11:27;;;;;;;3.35;1.77;;;18.60;74.00;;;;;;4963119;28;20169;-60
2023/12/04 07:13:53;;;;;;;4.80;2.00;;;18.60;74.00;;;;;;4963019;28;20487;-60
2023/12/04 07:16:18;;;;;;;4.55;1.90;;;18.60;74.10;;;;;;4959301;28;20101;-62
2023/12/04 07:18:44;;;;;;;2.17;1.38;;;18.60;73.90;;;;;;4959998;28;20046;-60
2023/12/04 07:21:09;;;;;;;3.30;1.33;;;18.60;73.90;;;;;;4960986;28;20034;-61
2023/12/04 07:23:35;;;;;;;4.28;2.10;;;18.60;74.00;;;;;;4963047;28;20019;-62
2023/12/04 07:26:01;;;;;;;6.15;1.55;;;18.60;74.10;;;;;;4961585;28;20030;-59
2023/12/04 07:28:26;;;;;;;2.58;1.75;;;18.60;74.10;;;;;;4959866;28;20027;-58
2023/12/04 07:30:53;;;;;;;1.65;1.00;;;18.50;74.10;;;;;;4959636;28;20049;-58
2023/12/04 07:33:19;;;;;;;2.20;1.33;;;18.50;74.30;;;;;;4962124;28;20038;-59
2023/12/04 07:35:44;;;;;;;1.90;1.15;;;18.50;74.30;;;;;;4962047;28;20100;-59
2023/12/04 07:38:10;;;;;;;1.63;1.27;;;18.50;74.40;;;;;;4960662;28;20030;-55
2023/12/04 07:40:36;;;;;;;1.20;1.10;;;18.50;74.40;;;;;;4959835;28;20038;-60
2023/12/04 07:43:02;;;;;;;2.25;1.23;;;18.50;74.40;;;;;;4959682;28;20479;-60
2023/12/04 07:45:27;;;;;;;6.78;1.33;;;18.50;74.40;;;;;;4961909;28;20027;-60
2023/12/04 07:47:53;;;;;;;4.35;1.40;;;18.50;74.30;;;;;;4962657;28;20102;-59
2023/12/04 07:50:19;;;;;;;1.75;1.13;;;18.40;74.40;;;;;;4959255;28;20113;-59
2023/12/04 07:52:44;;;;;;;2.08;1.48;;;18.40;74.50;;;;;;4959634;28;20024;-58
2023/12/04 07:55:10;;;;;;;3.22;1.30;;;18.40;74.50;;;;;;4959624;28;20433;-60
2023/12/04 07:57:35;;;;;;;5.20;1.58;;;18.40;74.50;;;;;;4962502;28;20023;-62
2023/12/04 08:00:01;;;;;;;1.80;1.30;;;18.40;74.50;;;;;;4966420;28;20030;-58
2023/12/04 08:02:27;;;;;;;2.28;1.00;;;18.50;74.60;;;;;;4959235;28;20479;-56
2023/12/04 08:04:53;;;;;;;4.85;1.83;;;18.40;74.70;;;;;;4958135;28;20038;-58
2023/12/04 08:07:19;;;;;;;7.15;6.13;;;18.40;74.70;;;;;;4962151;28;20035;-59
2023/12/04 08:09:44;;;;;;;8.45;7.40;;;18.20;62.10;;;;;;4961877;28;20027;-61
2023/12/04 08:12:10;;;;;;;10.02;8.20;;;17.70;51.30;;;;;;4960076;28;20034;-62
2023/12/04 08:14:35;;;;;;;11.10;7.70;;;17.10;45.80;;;;;;4958613;28;20019;-59
2023/12/04 08:17:01;;;;;;;10.43;8.93;;;16.50;45.40;;;;;;4958605;28;20023;-58
2023/12/04 08:19:27;;;;;;;9.50;7.80;;;15.90;45.30;;;;;;4961906;28;20058;-58
2023/12/04 08:21:53;;;;;;;9.30;6.28;;;15.40;47.40;;;;;;4962032;28;20030;-57
2023/12/04 08:24:18;;;;;;;17.27;7.57;;;15.50;62.40;;;;;;4958462;28;20023;-57
2023/12/04 08:26:45;;;;;;;26.42;7.22;;;15.70;66.30;;;;;;4958182;28;20477;-58
2023/12/04 08:29:11;;;;;;;12.23;6.75;;;16.00;67.40;;;;;;4960345;28;20059;-59
2023/12/04 08:31:36;;;;;;;15.43;6.25;;;16.40;67.30;;;;;;4962038;28;20055;-58
2023/12/04 08:34:02;;;;;;;9.45;5.70;;;16.80;67.10;;;;;;4960660;28;20031;-58
2023/12/04 08:36:28;;;;;;;9.52;5.20;;;17.10;66.90;;;;;;4958339;28;20026;-58
2023/12/04 08:38:53;;;;;;;9.02;5.35;;;17.40;66.70;;;;;;4958481;28;20034;-58
2023/12/04 08:41:19;;;;;;;6.53;4.75;;;17.60;66.40;;;;;;4952121;28;20055;-60
2023/12/04 08:43:44;;;;;;;6.60;4.78;;;17.90;66.10;;;;;;4950072;28;20069;-57
2023/12/04 08:46:14;;;;;;;11.73;4.38;;;18.00;65.90;;;;;;4958719;28;20402;-59
2023/12/04 08:48:43;;;;;;;17.73;5.32;;;18.30;66.10;;;;;;4950722;28;20044;-57
2023/12/04 08:51:18;;;;;;;22.42;4.78;;;18.50;66.60;;;;;;4960549;28;20027;-59
2023/12/04 08:53:44;;;;;;;20.08;4.30;;;18.60;66.80;;;;;;4970452;28;20513;-58
2023/12/04 08:56:10;;;;;;;14.25;4.45;;;18.70;66.60;;;;;;4969732;28;20351;-60
2023/12/04 08:58:36;;;;;;;6.93;3.10;;;18.80;66.50;;;;;;4970371;28;20022;-61
2023/12/04 09:01:03;;;;;;;15.57;4.20;;;18.80;65.90;;;;;;4970334;28;20390;-61
2023/12/04 09:03:29;;;;;;;11.65;3.95;;;18.80;66.00;;;;;;4965397;28;20027;-63
2023/12/04 09:05:55;;;;;;;18.55;3.92;;;18.90;66.00;;;;;;4952999;28;20035;-63
2023/12/04 09:08:22;;;;;;;16.20;3.38;;;18.90;66.00;;;;;;4953868;28;20026;-63
2023/12/04 09:10:48;;;;;;;11.50;3.80;;;19.00;65.80;;;;;;4968925;28;20562;-61
2023/12/04 09:13:14;;;;;;;17.02;3.97;;;19.10;65.60;;;;;;4970242;28;20062;-59
2023/12/04 09:15:40;;;;;;;13.00;4.13;;;19.20;65.70;;;;;;4959850;28;20035;-60
2023/12/04 09:18:06;;;;;;;15.15;3.83;;;19.10;65.70;;;;;;4956836;28;20483;-61
2023/12/04 09:20:32;;;;;;;19.08;4.03;;;19.20;65.80;;;;;;4960220;28;20411;-61
2023/12/04 09:22:57;;;;;;;8.35;3.60;;;19.30;65.40;;;;;;4967613;28;20030;-59
2023/12/04 09:25:23;;;;;;;9.30;3.58;;;19.30;65.30;;;;;;4966958;28;20159;-58
2023/12/04 09:27:48;;;;;;;7.70;3.58;;;19.30;65.20;;;;;;4968586;28;20106;-59
2023/12/04 09:30:14;;;;;;;13.60;3.33;;;19.30;64.90;;;;;;4968401;28;20030;-61
2023/12/04 09:32:40;;;;;;;18.92;3.53;;;19.40;64.80;;;;;;4968875;28;20026;-60
2023/12/04 09:35:06;;;;;;;15.75;3.45;;;19.30;64.90;;;;;;4968891;28;20023;-61
2023/12/04 09:37:31;;;;;;;10.95;3.95;;;19.40;65.00;;;;;;4969832;28;20023;-59
2023/12/04 09:39:57;;;;;;;22.35;3.97;;;19.40;65.20;;;;;;4970051;28;20497;-60
2023/12/04 09:42:23;;;;;;;7.93;3.53;;;19.40;65.30;;;;;;4950566;28;20069;-61
2023/12/04 09:44:52;;;;;;;12.43;3.42;;;19.40;65.30;;;;;;4949838;29;20023;-57
2023/12/04 09:47:18;;;;;;;8.07;3.03;;;19.30;65.50;;;;;;4950444;29;20027;-59
2023/12/04 09:49:45;;;;;;;12.43;3.40;;;19.30;65.80;;;;;;4950696;29;20019;-60
2023/12/04 09:52:11;;;;;;;11.23;3.55;;;19.30;65.90;;;;;;4950100;29;20042;-56
2023/12/04 09:54:38;;;;;;;11.68;3.63;;;19.30;65.80;;;;;;4950157;29;20028;-57
2023/12/04 09:57:05;;;;;;;8.77;2.97;;;19.30;65.60;;;;;;4950102;29;20051;-57
2023/12/04 09:59:31;;;;;;;10.88;3.05;;;19.30;65.60;;;;;;4950400;29;20019;-61
2023/12/04 10:01:57;;;;;;;14.50;3.83;;;19.20;65.70;;;;;;4950485;28;20445;-56
2023/12/04 10:04:24;;;;;;;9.63;3.30;;;19.20;65.90;;;;;;4950162;29;20028;-57
2023/12/04 10:06:52;;;;;;;7.68;2.85;;;19.20;66.00;;;;;;4949830;29;20035;-59
2023/12/04 10:09:18;;;;;;;9.20;3.25;;;19.10;65.90;;;;;;4950183;29;20050;-59
2023/12/04 10:11:45;;;;;;;6.20;2.47;;;19.10;66.10;;;;;;4950406;28;20037;-56
2023/12/04 10:14:19;;;;;;;6.80;3.30;;;19.10;66.40;;;;;;4949842;29;20078;-57
2023/12/04 10:16:45;;;;;;;11.65;2.42;;;19.10;66.30;;;;;;4949950;28;20049;-57
2023/12/04 10:19:20;;;;;;;3.58;2.03;;;19.00;66.30;;;;;;4950361;29;20436;-59
2023/12/04 10:21:47;;;;;;;8.95;2.58;;;19.00;66.30;;;;;;4950277;29;20135;-59
2023/12/04 10:24:26;;;;;;;5.20;2.08;;;19.00;66.40;;;;;;4949861;28;20058;-58
2023/12/04 10:26:52;;;;;;;6.82;2.22;;;18.90;66.40;;;;;;4950048;29;20027;-58
2023/12/04 10:29:18;;;;;;;8.68;2.63;;;18.90;66.50;;;;;;4950103;29;20498;-57
2023/12/04 10:31:43;;;;;;;4.90;1.70;;;18.90;66.60;;;;;;4951595;28;20039;-56
2023/12/04 10:34:12;;;;;;;6.85;2.35;;;18.80;66.70;;;;;;4953056;29;20027;-57
2023/12/04 10:36:38;;;;;;;5.88;1.77;;;18.90;66.80;;;;;;4960372;28;20043;-57
2023/12/04 10:39:06;;;;;;;6.60;2.67;;;18.80;66.80;;;;;;4952465;28;20031;-57
2023/12/04 10:41:32;;;;;;;6.38;2.00;;;18.80;66.90;;;;;;4952314;28;20051;-57
2023/12/04 10:43:58;;;;;;;5.10;2.17;;;18.80;67.00;;;;;;4952918;28;20078;-57
2023/12/04 10:46:25;;;;;;;4.38;2.10;;;18.90;67.00;;;;;;4953191;28;20074;-56
2023/12/04 10:48:51;;;;;;;5.80;2.15;;;18.80;67.10;;;;;;4953491;28;20031;-58
2023/12/04 10:51:17;;;;;;;7.80;2.03;;;18.90;67.10;;;;;;4953475;28;20039;-57
2023/12/04 10:53:44;;;;;;;8.15;2.08;;;18.90;67.10;;;;;;4952252;29;20441;-60
2023/12/04 10:56:15;;;;;;;9.60;1.88;;;18.90;67.10;;;;;;4952271;28;20127;-59
2023/12/04 10:58:41;;;;;;;5.20;2.08;;;18.90;67.00;;;;;;4952524;28;20126;-58
2023/12/04 11:01:08;;;;;;;3.60;2.10;;;18.90;66.90;;;;;;4952430;28;20085;-58
2023/12/04 11:03:44;;;;;;;3.45;1.90;;;18.90;66.80;;;;;;4951453;29;20028;-58
2023/12/04 11:06:12;;;;;;;3.33;1.77;;;19.00;66.80;;;;;;4951946;28;20030;-58
2023/12/04 11:08:41;;;;;;;2.08;1.45;;;19.00;66.70;;;;;;4952701;28;20543;-57
2023/12/04 11:11:12;;;;;;;5.50;1.60;;;19.00;66.70;;;;;;4951829;28;20039;-57
2023/12/04 11:13:41;;;;;;;;;;;18.90;66.60;;;;;;4952374;28;20127;-56
2023/12/04 11:16:32;;;;;;;2.67;1.58;;;18.90;66.60;;;;;;4951242;28;19921;-55
2023/12/04 11:19:14;;;;;;;1.77;1.23;;;19.00;66.50;;;;;;4952189;28;20054;-57
2023/12/04 11:21:40;;;;;;;2.50;1.55;;;18.90;66.40;;;;;;4951784;28;20031;-60
2023/12/04 11:24:08;;;;;;;2.53;1.50;;;19.00;66.40;;;;;;4951917;28;20030;-60
2023/12/04 11:26:34;;;;;;;4.25;1.55;;;18.90;66.40;;;;;;4951450;28;20487;-58
2023/12/04 11:29:00;;;;;;;2.83;1.30;;;18.90;66.40;;;;;;4951746;28;20023;-57
2023/12/04 11:31:26;;;;;;;2.53;1.25;;;18.90;66.50;;;;;;4951591;28;20035;-59
2023/12/04 11:33:52;;;;;;;1.20;1.10;;;18.80;66.50;;;;;;4951762;29;20027;-58
2023/12/04 11:36:18;;;;;;;1.88;1.20;;;18.80;66.60;;;;;;4950893;29;20038;-58
2023/12/04 11:38:49;;;;;;;2.20;1.30;;;18.80;66.70;;;;;;4951871;28;20027;-57
2023/12/04 11:41:20;;;;;;;1.15;0.82;;;18.80;66.80;;;;;;4951591;28;20414;-59
2023/12/04 11:43:49;;;;;;;1.10;0.80;;;18.80;66.90;;;;;;4950264;28;20059;-56
2023/12/04 11:46:25;;;;;;;1.77;1.13;;;18.70;66.90;;;;;;4963376;28;20024;-57
2023/12/04 11:48:54;;;;;;;2.50;0.80;;;18.70;67.00;;;;;;4956008;28;20023;-58
2023/12/04 11:51:38;;;;;;;0.95;0.85;;;18.70;67.00;;;;;;4961542;28;21257;-58
2023/12/04 11:54:04;;;;;;;2.40;1.00;;;18.70;67.10;;;;;;4970280;28;20027;-57
2023/12/04 11:56:31;;;;;;;2.25;1.20;;;18.60;67.10;;;;;;4970211;28;20393;-57
2023/12/04 11:59:04;;;;;;;4.32;1.40;;;18.70;67.10;;;;;;4970336;28;20076;-57
2023/12/04 12:01:34;;;;;;;2.03;1.20;;;18.70;67.20;;;;;;4944008;29;20075;-57
2023/12/04 12:04:00;;;;;;;2.28;1.10;;;18.70;67.30;;;;;;4958760;28;20037;-58
2023/12/04 12:06:27;;;;;;;1.83;0.80;;;18.70;67.30;;;;;;4942653;29;20029;-56
2023/12/04 12:08:54;;;;;;;3.08;0.85;;;18.70;67.40;;;;;;4950727;29;20055;-56
2023/12/04 12:11:20;;;;;;;2.80;1.08;;;18.80;67.40;;;;;;4983404;22;20552;-61
2023/12/04 12:13:46;;;;;;;0.93;0.90;;;18.80;67.40;;;;;;4971236;28;20059;-59
2023/12/04 12:16:11;;;;;;;1.10;1.00;;;18.80;67.30;;;;;;4970541;28;20034;-60
2023/12/04 12:18:38;;;;;;;0.90;0.70;;;18.80;67.30;;;;;;4971276;28;20045;-61
2023/12/04 12:21:04;;;;;;;1.08;0.98;;;18.80;67.20;;;;;;4954610;28;20081;-61
2023/12/04 12:23:30;;;;;;;0.90;0.90;;;18.80;67.10;;;;;;4952208;28;20450;-61
2023/12/04 12:25:56;;;;;;;1.20;0.80;;;18.90;67.00;;;;;;4951282;28;20106;-61
2023/12/04 12:28:22;;;;;;;1.35;0.90;;;18.90;66.90;;;;;;4951866;28;20050;-61
2023/12/04 12:30:47;;;;;;;1.10;0.80;;;18.90;66.90;;;;;;4950840;28;20035;-61
2023/12/04 12:33:15;;;;;;;2.03;1.02;;;18.90;66.80;;;;;;4960091;28;20045;-61
2023/12/04 12:35:41;;;;;;;0.68;0.68;;;18.90;66.80;;;;;;4970002;28;20385;-61
2023/12/04 12:38:07;;;;;;;0.75;0.70;;;18.90;66.80;;;;;;4971158;28;20053;-61
2023/12/04 12:40:33;;;;;;;0.80;0.80;;;18.90;66.70;;;;;;4970915;28;20493;-61